createdAt,value
2019-01-03T00:01:56.468Z,1.04
2019-01-03T00:04:33.251Z,1.20
2019-01-03T00:07:20.446Z,0.93
2019-01-03T00:09:53.938Z,0.98
2019-01-03T00:12:25.001Z,1.16
2019-01-03T00:14:54.199Z,1.06
2019-01-03T00:17:25.271Z,1.03
2019-01-03T00:20:11.555Z,0.98
2019-01-03T00:22:59.790Z,1.05
2019-01-03T00:25:33.287Z,0.97
2019-01-03T00:28:20.263Z,1.15
2019-01-03T00:31:03.054Z,1.01
2019-01-03T00:33:50.257Z,1.08
2019-01-03T00:36:37.543Z,1.03
2019-01-03T00:39:24.496Z,0.99
2019-01-03T00:42:11.871Z,1.01
2019-01-03T00:44:59.201Z,1.09
2019-01-03T00:47:46.823Z,1.10
2019-01-03T00:50:34.227Z,0.97
2019-01-03T00:53:06.389Z,0.91
2019-01-03T00:55:53.610Z,0.91
2019-01-03T00:58:33.349Z,0.90
2019-01-03T01:01:07.628Z,0.90
2019-01-03T01:03:56.701Z,0.90
2019-01-03T01:06:45.812Z,0.94
2019-01-03T01:09:22.605Z,1.08
2019-01-03T01:12:09.886Z,1.05
2019-01-03T01:14:52.908Z,1.06
2019-01-03T01:17:26.671Z,0.99
2019-01-03T01:19:57.730Z,0.77
2019-01-03T01:22:31.459Z,0.89
2019-01-03T01:25:02.525Z,0.88
2019-01-03T01:27:36.261Z,0.80
2019-01-03T01:30:26.297Z,0.77
2019-01-03T01:33:00.093Z,0.75
2019-01-03T01:35:47.397Z,0.70
2019-01-03T01:38:22.825Z,0.62
2019-01-03T01:40:53.885Z,0.74
2019-01-03T01:43:28.881Z,0.63
2019-01-03T01:46:05.937Z,0.82
2019-01-03T01:48:52.804Z,0.63
2019-01-03T01:51:26.619Z,0.78
2019-01-03T01:53:57.699Z,0.73
2019-01-03T01:56:41.572Z,0.91
2019-01-03T01:59:15.022Z,0.76
2019-01-03T02:01:46.089Z,0.80
2019-01-03T02:04:32.995Z,0.58
2019-01-03T02:07:07.008Z,0.61
2019-01-03T02:09:46.820Z,0.61
2019-01-03T02:12:17.907Z,0.76
2019-01-03T02:14:51.954Z,0.71
2019-01-03T02:17:26.070Z,0.63
2019-01-03T02:20:00.268Z,0.57
2019-01-03T02:22:31.446Z,0.70
2019-01-03T02:25:02.569Z,0.75
2019-01-03T02:27:39.367Z,0.64
2019-01-03T02:30:10.703Z,0.67
2019-01-03T02:32:58.198Z,0.69
2019-01-03T02:35:45.398Z,0.78
2019-01-03T02:38:25.278Z,0.83
2019-01-03T02:41:08.308Z,0.60
2019-01-03T02:43:41.976Z,0.61
2019-01-03T02:46:16.747Z,0.61
2019-01-03T02:48:47.818Z,0.66
2019-01-03T02:51:17.034Z,0.71
2019-01-03T02:54:04.306Z,0.74
2019-01-03T02:56:51.155Z,0.72
2019-01-03T02:59:24.890Z,0.75
2019-01-03T03:02:09.093Z,0.63
2019-01-03T03:04:40.186Z,0.79
2019-01-03T03:07:27.353Z,0.58
2019-01-03T03:10:01.253Z,0.60
2019-01-03T03:12:38.266Z,0.69
2019-01-03T03:15:18.028Z,0.54
2019-01-03T03:17:49.126Z,0.56
2019-01-03T03:20:20.181Z,0.67
2019-01-03T03:22:51.238Z,0.55
2019-01-03T03:25:31.106Z,0.51
2019-01-03T03:28:12.234Z,0.55
2019-01-03T03:30:59.400Z,0.54
2019-01-03T03:33:45.489Z,0.52
2019-01-03T03:36:22.702Z,0.49
2019-01-03T03:38:59.323Z,0.46
2019-01-03T03:41:36.207Z,0.32
2019-01-03T03:44:07.290Z,0.24
2019-01-03T03:46:38.358Z,0.25
2019-01-03T03:49:25.570Z,0.42
2019-01-03T03:52:00.259Z,0.32
2019-01-03T03:54:47.571Z,0.38
2019-01-03T03:57:34.627Z,0.33
2019-01-03T04:00:13.070Z,0.37
2019-01-03T04:03:00.303Z,0.31
2019-01-03T04:05:47.409Z,0.46
2019-01-03T04:08:24.055Z,0.39
2019-01-03T04:11:03.679Z,0.50
2019-01-03T04:13:43.303Z,0.33
2019-01-03T04:16:17.031Z,0.20
2019-01-03T04:19:06.375Z,0.21
2019-01-03T04:21:53.189Z,0.20
2019-01-03T04:24:24.286Z,0.27
2019-01-03T04:27:01.075Z,0.22
2019-01-03T04:29:37.843Z,0.21
2019-01-03T04:32:17.558Z,0.10
2019-01-03T04:34:57.592Z,0.29
2019-01-03T04:37:43.779Z,0.21
2019-01-03T04:40:14.846Z,0.17
2019-01-03T04:42:48.887Z,0.14
2019-01-03T04:45:22.622Z,0.26
2019-01-03T04:48:11.808Z,0.16
2019-01-03T04:50:53.044Z,0.15
2019-01-03T04:53:27.057Z,0.22
2019-01-03T04:56:14.038Z,0.20
2019-01-03T04:59:01.445Z,0.22
2019-01-03T05:02:05.194Z,0.07
2019-01-03T05:04:41.996Z,-0.01
2019-01-03T05:07:29.298Z,0.01
2019-01-03T05:10:16.824Z,0.37
2019-01-03T05:13:07.639Z,0.34
2019-01-03T05:15:54.493Z,0.19
2019-01-03T05:18:28.263Z,0.33
2019-01-03T05:21:14.422Z,0.07
2019-01-03T05:23:57.361Z,0.12
2019-01-03T05:26:41.841Z,0.24
2019-01-03T05:29:12.900Z,0.03
2019-01-03T05:31:47.604Z,0.04
2019-01-03T05:34:24.365Z,0.07
2019-01-03T05:37:11.594Z,0.07
2019-01-03T05:40:00.890Z,0.21
2019-01-03T05:42:34.756Z,0.33
2019-01-03T05:45:24.473Z,0.29
2019-01-03T05:48:11.700Z,0.25
2019-01-03T05:50:48.683Z,0.30
2019-01-03T05:53:25.495Z,0.19
2019-01-03T05:56:14.344Z,0.12
2019-01-03T05:58:43.549Z,0.26
2019-01-03T06:01:14.620Z,0.23
2019-01-03T06:03:46.279Z,0.17
2019-01-03T06:06:29.481Z,0.04
2019-01-03T06:09:02.961Z,-0.04
2019-01-03T06:11:34.034Z,0.03
2019-01-03T06:14:07.937Z,-0.04
2019-01-03T06:16:54.094Z,-0.08
2019-01-03T06:19:37.136Z,-0.11
2019-01-03T06:22:14.211Z,-0.03
2019-01-03T06:24:45.289Z,-0.04
2019-01-03T06:27:32.403Z,-0.05
2019-01-03T06:30:15.122Z,0.08
2019-01-03T06:32:58.499Z,0.00
2019-01-03T06:35:45.671Z,0.11
2019-01-03T06:38:16.743Z,0.12
2019-01-03T06:41:04.774Z,0.14
2019-01-03T06:43:51.930Z,0.06
2019-01-03T06:46:37.657Z,0.06
2019-01-03T06:49:09.805Z,0.03
2019-01-03T06:51:46.625Z,-0.02
2019-01-03T06:54:32.745Z,0.01
2019-01-03T06:57:09.874Z,-0.03
2019-01-03T06:59:43.368Z,-0.05
2019-01-03T07:02:30.651Z,0.03
2019-01-03T07:05:20.329Z,0.09
2019-01-03T07:08:16.946Z,0.02
2019-01-03T07:11:00.037Z,0.05
2019-01-03T07:13:36.627Z,-0.07
2019-01-03T07:16:24.098Z,-0.14
2019-01-03T07:19:10.220Z,-0.26
2019-01-03T07:21:44.059Z,-0.08
2019-01-03T07:24:15.138Z,0.02
2019-01-03T07:26:51.993Z,-0.06
2019-01-03T07:29:23.926Z,-0.11
2019-01-03T07:32:06.721Z,0.14
2019-01-03T07:34:38.865Z,0.14
2019-01-03T07:37:25.000Z,0.19
2019-01-03T07:40:09.064Z,0.18
2019-01-03T07:42:58.203Z,0.10
2019-01-03T07:45:44.435Z,0.20
2019-01-03T07:48:31.741Z,0.19
2019-01-03T07:51:18.643Z,0.08
2019-01-03T07:53:55.557Z,0.01
2019-01-03T07:56:42.978Z,0.01
2019-01-03T07:59:29.894Z,-0.12
2019-01-03T08:02:10.104Z,-0.05
2019-01-03T08:04:43.829Z,-0.05
2019-01-03T08:07:14.916Z,-0.05
2019-01-03T08:10:02.131Z,0.07
2019-01-03T08:12:49.696Z,0.06
2019-01-03T08:15:26.591Z,0.02
2019-01-03T08:18:00.297Z,0.00
2019-01-03T08:20:38.387Z,0.03
2019-01-03T08:23:09.450Z,0.08
2019-01-03T08:25:43.177Z,0.24
2019-01-03T08:28:17.167Z,0.26
2019-01-03T08:30:46.361Z,0.31
2019-01-03T08:33:20.369Z,0.14
2019-01-03T08:35:54.077Z,0.10
2019-01-03T08:38:40.929Z,0.22
2019-01-03T08:41:30.156Z,0.30
2019-01-03T08:44:05.534Z,0.31
2019-01-03T08:46:48.634Z,0.34
2019-01-03T08:49:17.865Z,0.25
2019-01-03T08:52:03.720Z,0.20
2019-01-03T08:54:40.477Z,0.07
2019-01-03T08:57:11.561Z,0.21
2019-01-03T08:59:42.642Z,0.13
2019-01-03T09:02:29.756Z,0.15
2019-01-03T09:05:07.438Z,0.05
2019-01-03T09:07:47.141Z,-0.14
2019-01-03T09:10:30.322Z,-0.25
2019-01-03T09:13:11.025Z,-0.08
2019-01-03T09:15:42.101Z,0.19
2019-01-03T09:18:13.166Z,0.32
2019-01-03T09:21:00.254Z,0.15
2019-01-03T09:23:49.590Z,0.01
2019-01-03T09:26:36.922Z,0.15
2019-01-03T09:29:08.017Z,0.33
2019-01-03T09:31:42.090Z,0.48
2019-01-03T09:34:27.841Z,0.29
2019-01-03T09:37:04.765Z,0.38
2019-01-03T09:39:41.275Z,0.50
2019-01-03T09:42:28.708Z,0.60
2019-01-03T09:44:58.138Z,0.72
2019-01-03T09:47:27.570Z,0.58
2019-01-03T09:49:56.998Z,0.41
2019-01-03T09:52:26.422Z,0.45
2019-01-03T09:54:55.857Z,0.50
2019-01-03T09:57:25.280Z,0.53
2019-01-03T09:59:54.704Z,0.42
2019-01-03T10:02:24.139Z,0.52
2019-01-03T10:04:53.571Z,0.42
2019-01-03T10:07:22.983Z,0.68
2019-01-03T10:09:52.442Z,0.94
2019-01-03T10:12:21.898Z,0.98
2019-01-03T10:14:51.346Z,0.81
2019-01-03T10:17:20.771Z,0.92
2019-01-03T10:19:50.213Z,0.97
2019-01-03T10:22:19.653Z,0.62
2019-01-03T10:24:49.087Z,0.56
2019-01-03T10:27:18.515Z,0.76
2019-01-03T10:29:47.966Z,0.95
2019-01-03T10:32:17.394Z,0.72
2019-01-03T10:34:46.842Z,0.96
2019-01-03T10:37:16.292Z,0.92
2019-01-03T10:39:45.721Z,0.99
2019-01-03T10:42:15.147Z,1.21
2019-01-03T10:44:44.596Z,1.44
2019-01-03T10:47:14.025Z,1.56
2019-01-03T10:49:43.461Z,1.50
2019-01-03T10:52:12.868Z,1.53
2019-01-03T10:54:42.292Z,1.65
2019-01-03T10:57:11.723Z,1.64
2019-01-03T10:59:41.157Z,1.82
2019-01-03T11:02:10.581Z,1.65
2019-01-03T11:04:40.005Z,1.61
2019-01-03T11:07:09.433Z,1.60
2019-01-03T11:09:38.856Z,1.42
2019-01-03T11:12:08.350Z,1.42
2019-01-03T11:14:37.775Z,1.38
2019-01-03T11:17:07.201Z,1.16
2019-01-03T11:19:36.631Z,1.33
2019-01-03T11:22:06.061Z,1.41
2019-01-03T11:24:35.481Z,1.58
2019-01-03T11:27:04.911Z,1.57
2019-01-03T11:29:34.348Z,1.47
2019-01-03T11:32:03.784Z,1.45
2019-01-03T11:34:33.203Z,1.31
2019-01-03T11:37:02.648Z,1.67
2019-01-03T11:39:32.075Z,1.68
2019-01-03T11:42:01.488Z,1.74
2019-01-03T11:44:30.924Z,1.66
2019-01-03T11:47:00.343Z,1.80
2019-01-03T11:49:29.781Z,1.95
2019-01-03T11:51:59.210Z,2.02
2019-01-03T11:54:28.641Z,1.88
2019-01-03T11:56:58.087Z,1.61
2019-01-03T11:59:27.514Z,1.58
2019-01-03T12:01:56.945Z,1.73
2019-01-03T12:04:26.379Z,1.74
2019-01-03T12:06:55.814Z,1.91
2019-01-03T12:09:25.247Z,1.77
2019-01-03T12:11:54.678Z,1.60
2019-01-03T12:14:24.108Z,1.30
2019-01-03T12:16:53.529Z,1.00
2019-01-03T12:19:23.001Z,1.07
2019-01-03T12:21:52.434Z,1.16
2019-01-03T12:24:21.883Z,1.16
2019-01-03T12:26:51.320Z,1.20
2019-01-03T12:29:20.777Z,1.15
2019-01-03T12:31:50.206Z,1.31
2019-01-03T12:34:19.663Z,1.51
2019-01-03T12:36:49.103Z,1.43
2019-01-03T12:39:18.563Z,1.48
2019-01-03T12:41:48.007Z,1.35
2019-01-03T12:44:17.432Z,1.46
2019-01-03T12:46:46.868Z,1.41
2019-01-03T12:49:16.326Z,1.60
2019-01-03T12:51:46.040Z,1.74
2019-01-03T12:54:15.498Z,1.82
2019-01-03T12:56:44.917Z,2.30
2019-01-03T12:59:14.361Z,2.60
2019-01-03T13:01:43.780Z,2.89
2019-01-03T13:04:13.242Z,3.09
2019-01-03T13:06:42.658Z,3.27
2019-01-03T13:09:31.446Z,3.39
2019-01-03T13:12:20.228Z,3.62
2019-01-03T13:15:09.085Z,3.20
2019-01-03T13:17:57.895Z,3.25
2019-01-03T13:20:46.695Z,2.84
2019-01-03T13:23:35.473Z,3.38
2019-01-03T13:26:24.249Z,3.67
2019-01-03T13:29:13.114Z,3.89
2019-01-03T13:32:01.885Z,4.01
2019-01-03T13:34:50.668Z,3.99
2019-01-03T13:37:39.423Z,3.50
2019-01-03T13:40:28.201Z,3.42
2019-01-03T13:43:10.266Z,2.56
2019-01-03T13:45:59.059Z,2.86
2019-01-03T13:48:47.826Z,2.26
2019-01-03T13:51:36.638Z,2.15
2019-01-03T13:54:25.407Z,2.30
2019-01-03T13:57:14.197Z,1.92
2019-01-03T14:00:03.104Z,1.41
2019-01-03T14:02:51.882Z,1.78
2019-01-03T14:05:47.433Z,1.33
2019-01-03T14:08:36.204Z,1.52
2019-01-03T14:11:25.016Z,1.41
2019-01-03T14:14:13.841Z,1.68
2019-01-03T14:17:02.651Z,1.68
2019-01-03T14:19:51.437Z,1.95
2019-01-03T14:22:33.220Z,1.48
2019-01-03T14:25:22.016Z,1.88
2019-01-03T14:28:10.782Z,1.95
2019-01-03T14:30:59.592Z,1.64
2019-01-03T14:33:48.348Z,0.93
2019-01-03T14:36:37.181Z,1.56
2019-01-03T14:39:25.958Z,1.46
2019-01-03T14:42:14.780Z,1.17
2019-01-03T14:48:18.690Z,0.48
2019-01-03T14:51:07.500Z,0.59
2019-01-03T14:53:56.340Z,0.79
2019-01-03T14:56:45.122Z,0.78
2019-01-03T14:59:33.921Z,0.98
2019-01-03T15:02:22.759Z,0.70
2019-01-03T15:05:14.059Z,0.98
2019-01-03T15:08:02.031Z,0.87
2019-01-03T15:10:50.848Z,0.83
2019-01-03T15:13:39.624Z,0.87
2019-01-03T15:16:28.436Z,0.91
2019-01-03T15:19:17.214Z,0.32
2019-01-03T15:22:06.053Z,0.43
2019-01-03T15:24:54.819Z,0.46
2019-01-03T15:27:43.721Z,0.60
2019-01-03T15:30:32.469Z,0.55
2019-01-03T15:33:21.291Z,0.69
2019-01-03T15:36:10.053Z,0.55
2019-01-03T15:38:58.817Z,0.28
2019-01-03T15:41:47.591Z,0.46
2019-01-03T15:44:36.350Z,0.38
2019-01-03T15:47:25.118Z,0.49
2019-01-03T15:49:54.547Z,0.27
2019-01-03T15:52:24.072Z,0.32
2019-01-03T15:54:53.515Z,0.38
2019-01-03T15:57:42.531Z,0.48
2019-01-03T16:00:31.357Z,0.51
2019-01-03T16:03:20.151Z,0.44
2019-01-03T16:06:02.037Z,0.44
2019-01-03T16:08:31.613Z,0.20
2019-01-03T16:11:20.394Z,0.17
2019-01-03T16:14:09.199Z,0.16
2019-01-03T16:16:57.997Z,-0.43
2019-01-03T16:19:27.419Z,0.69
2019-01-03T16:22:15.980Z,1.18
2019-01-03T16:28:33.498Z,0.71
2019-01-03T16:34:16.641Z,0.31
2019-01-03T16:37:05.445Z,0.35
2019-01-03T16:39:54.220Z,-0.40
2019-01-03T16:42:43.304Z,0.23
2019-01-03T16:48:32.603Z,0.37
2019-01-03T16:51:21.392Z,0.23
2019-01-03T16:54:10.197Z,0.34
2019-01-03T16:56:59.007Z,0.54
2019-01-03T16:59:47.775Z,0.63
2019-01-03T17:05:31.581Z,0.36
2019-01-03T17:08:20.343Z,0.40
2019-01-03T17:11:09.120Z,0.44
2019-01-03T17:13:57.924Z,0.58
2019-01-03T17:16:46.700Z,0.67
2019-01-03T17:19:35.474Z,0.37
2019-01-03T17:22:24.309Z,0.35
2019-01-03T17:25:13.070Z,0.30
2019-01-03T17:27:54.946Z,0.32
2019-01-03T17:30:43.708Z,0.15
2019-01-03T17:33:32.484Z,-0.25
2019-01-03T17:36:21.269Z,-0.23
2019-01-03T17:39:10.063Z,0.25
2019-01-03T17:41:58.834Z,-0.02
2019-01-03T17:44:47.649Z,0.10
2019-01-03T17:47:17.079Z,0.03
2019-01-03T17:49:46.547Z,0.16
2019-01-03T17:52:15.983Z,-0.05
2019-01-03T17:54:45.469Z,0.02
2019-01-03T17:57:34.923Z,0.17
2019-01-03T18:00:23.741Z,0.30
2019-01-03T18:03:12.607Z,0.23
2019-01-03T18:06:01.455Z,0.40
2019-01-03T18:08:50.264Z,0.35
2019-01-03T18:11:39.120Z,-0.19
2019-01-03T18:14:27.987Z,0.14
2019-01-03T18:17:16.737Z,-0.02
2019-01-03T18:20:26.495Z,0.21
2019-01-03T18:23:15.062Z,0.21
2019-01-03T18:26:03.794Z,0.21
2019-01-03T18:28:33.253Z,0.25
2019-01-03T18:31:22.043Z,0.35
2019-01-03T18:37:05.575Z,0.40
2019-01-03T18:39:54.383Z,0.43
2019-01-03T18:42:43.236Z,0.40
2019-01-03T18:45:32.014Z,0.43
2019-01-03T18:48:20.832Z,-0.07
2019-01-03T18:51:09.613Z,0.42
2019-01-03T18:53:58.428Z,0.35
2019-01-03T18:56:47.188Z,0.71
2019-01-03T18:59:35.974Z,0.50
2019-01-03T19:02:24.732Z,0.47
2019-01-03T19:05:13.499Z,-0.19
2019-01-03T19:08:02.273Z,0.38
2019-01-03T19:10:31.704Z,0.33
2019-01-03T19:13:01.131Z,0.31
2019-01-03T19:15:30.563Z,0.52
2019-01-03T19:18:00.005Z,0.40
2019-01-03T19:20:29.434Z,0.39
2019-01-03T19:22:58.861Z,0.51
2019-01-03T19:25:28.284Z,0.55
2019-01-03T19:27:57.719Z,0.54
2019-01-03T19:30:27.179Z,0.56
2019-01-03T19:32:56.698Z,0.65
2019-01-03T19:35:27.096Z,0.59
2019-01-03T19:37:56.523Z,0.56
2019-01-03T19:40:25.954Z,0.55
2019-01-03T19:42:55.375Z,0.46
2019-01-03T19:45:25.308Z,0.62
2019-01-03T19:47:54.702Z,0.69
2019-01-03T19:50:24.139Z,0.71
2019-01-03T19:52:53.574Z,0.72
2019-01-03T19:55:22.997Z,0.79
2019-01-03T19:57:52.439Z,0.76
2019-01-03T20:00:22.349Z,0.64
2019-01-03T20:02:51.826Z,0.71
2019-01-03T20:05:21.237Z,0.71
2019-01-03T20:07:50.658Z,0.67
2019-01-03T20:10:20.092Z,0.76
2019-01-03T20:12:49.516Z,0.81
2019-01-03T20:15:19.026Z,0.93
2019-01-03T20:17:48.501Z,0.90
2019-01-03T20:20:17.925Z,0.71
2019-01-03T20:22:47.404Z,0.66
2019-01-03T20:25:16.820Z,0.71
2019-01-03T20:27:46.277Z,0.67
2019-01-03T20:30:15.713Z,0.67
2019-01-03T20:32:45.184Z,0.87
2019-01-03T20:35:14.621Z,0.85
2019-01-03T20:37:44.079Z,0.92
2019-01-03T20:40:13.501Z,0.76
2019-01-03T20:42:42.964Z,0.69
2019-01-03T20:45:13.728Z,0.60
2019-01-03T20:47:43.214Z,0.49
2019-01-03T20:50:13.783Z,0.50
2019-01-03T20:52:43.246Z,0.52
2019-01-03T20:55:12.842Z,0.69
2019-01-03T20:57:42.312Z,0.52
2019-01-03T21:00:15.045Z,0.66
2019-01-03T21:02:44.613Z,0.59
2019-01-03T21:05:14.174Z,0.44
2019-01-03T21:07:43.647Z,0.53
2019-01-03T21:10:13.484Z,0.79
2019-01-03T21:12:43.036Z,0.73
2019-01-03T21:15:15.868Z,0.81
2019-01-03T21:17:46.446Z,0.71
2019-01-03T21:20:17.109Z,0.71
2019-01-03T21:22:46.615Z,0.70
2019-01-03T21:25:16.084Z,0.74
2019-01-03T21:27:45.552Z,0.66
2019-01-03T21:30:17.887Z,0.65
2019-01-03T21:32:47.381Z,0.61
2019-01-03T21:35:16.803Z,0.64
2019-01-03T21:37:46.275Z,0.81
2019-01-03T21:40:16.072Z,0.53
2019-01-03T21:42:45.554Z,0.48
2019-01-03T21:45:14.996Z,0.52
2019-01-03T21:47:44.414Z,0.61
2019-01-03T21:50:14.024Z,0.66
2019-01-03T21:52:43.449Z,0.58
2019-01-03T21:55:12.876Z,0.58
2019-01-03T21:57:42.333Z,0.41
2019-01-03T22:00:12.896Z,0.45
2019-01-03T22:02:42.328Z,0.53
2019-01-03T22:05:11.756Z,0.78
2019-01-03T22:07:41.183Z,0.66
2019-01-03T22:10:10.979Z,0.71
2019-01-03T22:12:40.407Z,0.76
2019-01-03T22:15:10.599Z,0.78
2019-01-03T22:17:40.028Z,0.68
2019-01-03T22:20:10.303Z,0.67
2019-01-03T22:22:39.832Z,0.62
2019-01-03T22:25:09.727Z,0.50
2019-01-03T22:27:39.159Z,0.48
2019-01-03T22:30:10.903Z,0.67
2019-01-03T22:32:40.324Z,0.91
2019-01-03T22:35:09.857Z,0.66
2019-01-03T22:37:39.292Z,0.60
2019-01-03T22:40:09.786Z,0.66
2019-01-03T22:42:39.212Z,0.61
2019-01-03T22:45:09.952Z,0.54
2019-01-03T22:47:39.447Z,0.61
2019-01-03T22:50:10.903Z,0.63
2019-01-03T22:52:40.333Z,0.65
2019-01-03T22:55:09.763Z,0.79
2019-01-03T22:57:39.195Z,0.80
2019-01-03T23:00:28.128Z,0.94
2019-01-03T23:02:57.582Z,0.88
2019-01-03T23:05:27.033Z,0.81
2019-01-03T23:07:56.466Z,0.85
2019-01-03T23:10:25.884Z,0.79
2019-01-03T23:12:55.314Z,0.91
2019-01-03T23:15:24.818Z,0.88
2019-01-03T23:17:54.244Z,0.90
2019-01-03T23:20:23.685Z,1.01
2019-01-03T23:22:53.106Z,0.94
2019-01-03T23:25:22.537Z,0.83
2019-01-03T23:27:51.968Z,0.78
2019-01-03T23:30:21.400Z,0.72
2019-01-03T23:32:50.836Z,0.70
2019-01-03T23:35:20.271Z,0.82
2019-01-03T23:37:49.700Z,0.83
2019-01-03T23:40:19.132Z,0.75
2019-01-03T23:42:48.551Z,0.67
2019-01-03T23:45:20.687Z,0.82
2019-01-03T23:47:51.922Z,0.73
2019-01-03T23:50:28.237Z,0.66
2019-01-03T23:52:57.655Z,0.70
2019-01-03T23:55:27.360Z,0.74
2019-01-03T23:57:56.803Z,0.74
